Central City, Missouri
Current Conditions -  °F | °C
As of 1:53 AM on Saturday 20 Dec 2014 (Local Time) from KJLN Reporting Station
Haze Haze  
Wind Chill: 38°   Ceiling: 600
Heat Index: 38°   Visibility: 5mi
Dew Point: 37°   Wind: 0mph
Humidity: 97%   Direction: NA
Pressure: 30.21"   Gusts: NA
Location:  37.1074°N, 94.5218°W
Report Text: KJLN 200753Z AUTO 00000KT 5SM BR BKN006 OVC022 03/03 A3021 RMK AO2 CIG 003V008 SLP234 T00330028
Loading
Personal Weather Stations






























Interactive Weather Map New forecast layout! Learn more

10-Day Weather Forecast

Advertisements
Track Severe Weather on mobile